createdAt,value
2023-02-03T00:02:18.378Z,89.87
2023-02-03T00:04:44.843Z,91.01
2023-02-03T00:07:12.651Z,89.75
2023-02-03T00:09:39.492Z,90.08
2023-02-03T00:12:06.456Z,90.48
2023-02-03T00:14:33.634Z,91.01
2023-02-03T00:17:00.391Z,91.58
2023-02-03T00:19:27.416Z,90.88
2023-02-03T00:21:54.814Z,90.60
2023-02-03T00:24:23.989Z,90.75
2023-02-03T00:26:51.410Z,90.88
2023-02-03T00:29:18.690Z,91.39
2023-02-03T00:31:46.107Z,91.49
2023-02-03T00:34:13.689Z,91.05
2023-02-03T00:36:43.274Z,91.73
2023-02-03T00:39:09.773Z,91.24
2023-02-03T00:41:36.839Z,91.58
2023-02-03T00:44:05.623Z,90.79
2023-02-03T00:46:32.172Z,91.43
2023-02-03T00:48:58.797Z,91.41
2023-02-03T00:51:25.753Z,91.51
2023-02-03T00:53:52.558Z,91.78
2023-02-03T00:56:20.236Z,91.58
2023-02-03T00:58:47.716Z,91.45
2023-02-03T01:01:14.812Z,91.13
2023-02-03T01:03:41.415Z,92.13
2023-02-03T01:06:19.610Z,91.91
2023-02-03T01:08:46.455Z,92.03
2023-02-03T01:11:17.254Z,91.77
2023-02-03T01:13:44.523Z,91.45
2023-02-03T01:16:13.190Z,91.48
2023-02-03T01:18:40.927Z,92.38
2023-02-03T01:24:49.026Z,91.24
2023-02-03T01:27:15.626Z,92.08
2023-02-03T01:29:42.042Z,92.30
2023-02-03T01:35:49.662Z,92.90
2023-02-03T01:38:16.077Z,92.61
2023-02-03T01:40:44.234Z,93.07
2023-02-03T01:43:11.534Z,92.95
2023-02-03T01:45:40.327Z,92.66
2023-02-03T01:48:08.252Z,92.67
2023-02-03T01:50:36.686Z,92.90
2023-02-03T01:53:07.226Z,93.42
2023-02-03T01:55:43.775Z,93.74
2023-02-03T01:58:19.869Z,93.34
2023-02-03T02:00:47.939Z,92.98
2023-02-03T02:03:14.576Z,93.49
2023-02-03T02:05:46.845Z,93.58
2023-02-03T02:08:14.004Z,92.97
2023-02-03T02:10:41.011Z,92.57
2023-02-03T02:13:08.185Z,92.46
2023-02-03T02:16:01.596Z,92.66
2023-02-03T02:18:43.583Z,92.75
2023-02-03T02:21:27.231Z,92.25
2023-02-03T02:24:07.716Z,93.18
2023-02-03T02:26:57.820Z,93.35
2023-02-03T02:29:50.900Z,92.83
2023-02-03T02:36:11.391Z,92.88
2023-02-03T02:38:47.486Z,92.90
2023-02-03T02:41:26.626Z,93.04
2023-02-03T02:44:09.191Z,93.52
2023-02-03T02:46:43.447Z,93.09
2023-02-03T02:52:51.658Z,93.59
2023-02-03T02:55:27.702Z,93.68
2023-02-03T02:57:57.272Z,92.74
2023-02-03T03:00:24.057Z,92.67
2023-02-03T03:02:51.105Z,93.22
2023-02-03T03:05:18.525Z,92.33
2023-02-03T03:07:48.962Z,93.10
2023-02-03T03:10:19.256Z,93.76
2023-02-03T03:12:50.016Z,93.68
2023-02-03T03:15:22.874Z,93.98
2023-02-03T03:17:56.939Z,94.05
2023-02-03T03:20:26.218Z,94.01
2023-02-03T03:23:33.377Z,94.05
2023-02-03T03:26:33.100Z,93.96
2023-02-03T03:29:26.244Z,94.34
2023-02-03T03:31:52.888Z,94.06
2023-02-03T03:34:19.830Z,94.36
2023-02-03T03:36:50.294Z,93.73
2023-02-03T03:39:28.769Z,94.03
2023-02-03T03:42:08.187Z,94.61
2023-02-03T03:44:45.022Z,94.15
2023-02-03T03:47:40.989Z,94.61
2023-02-03T03:50:11.667Z,94.19
2023-02-03T03:52:39.233Z,94.97
2023-02-03T03:55:08.927Z,94.72
2023-02-03T03:57:45.601Z,94.49
2023-02-03T04:00:15.583Z,94.43
2023-02-03T04:02:42.583Z,95.06
2023-02-03T04:05:10.872Z,95.26
2023-02-03T04:07:44.849Z,95.16
2023-02-03T04:10:23.465Z,95.24
2023-02-03T04:12:49.866Z,95.45
2023-02-03T04:15:16.479Z,95.33
2023-02-03T04:17:42.955Z,95.86
2023-02-03T04:20:10.006Z,96.09
2023-02-03T04:22:36.487Z,96.06
2023-02-03T04:25:03.057Z,96.06
2023-02-03T04:27:29.475Z,96.41
2023-02-03T04:29:55.888Z,95.78
2023-02-03T04:32:22.298Z,95.88
2023-02-03T04:34:49.081Z,95.90
2023-02-03T04:37:15.551Z,96.33
2023-02-03T04:39:41.979Z,95.80
2023-02-03T04:42:08.402Z,95.56
2023-02-03T04:44:34.872Z,95.19
2023-02-03T04:47:01.674Z,94.91
2023-02-03T04:53:08.874Z,95.26
2023-02-03T04:55:35.311Z,94.82
2023-02-03T04:58:02.239Z,94.66
2023-02-03T05:00:29.540Z,95.11
2023-02-03T05:02:58.509Z,94.29
2023-02-03T05:05:25.140Z,94.92
2023-02-03T05:07:51.557Z,94.77
2023-02-03T05:13:58.856Z,94.84
2023-02-03T05:20:07.024Z,93.72
2023-02-03T05:22:35.485Z,94.26
2023-02-03T05:25:04.376Z,94.64
2023-02-03T05:27:31.545Z,94.48
2023-02-03T05:29:58.059Z,94.74
2023-02-03T05:36:05.622Z,93.90
2023-02-03T05:38:32.001Z,94.08
2023-02-03T05:41:17.296Z,93.79
2023-02-03T05:43:43.737Z,93.72
2023-02-03T05:46:13.551Z,93.63
2023-02-03T05:48:40.076Z,93.71
2023-02-03T05:51:06.427Z,93.16
2023-02-03T05:53:32.794Z,93.98
2023-02-03T05:56:02.955Z,93.76
2023-02-03T05:58:29.408Z,93.60
2023-02-03T06:00:55.825Z,93.69
2023-02-03T06:03:22.313Z,94.02
2023-02-03T06:05:49.106Z,93.65
2023-02-03T06:08:15.544Z,93.01
2023-02-03T06:10:42.160Z,93.14
2023-02-03T06:13:13.161Z,93.92
2023-02-03T06:15:40.466Z,93.61
2023-02-03T06:18:07.640Z,92.66
2023-02-03T06:20:34.761Z,92.25
2023-02-03T06:23:01.655Z,93.59
2023-02-03T06:25:28.255Z,93.06
2023-02-03T06:27:55.521Z,92.06
2023-02-03T06:30:23.729Z,93.01
2023-02-03T06:32:50.244Z,92.21
2023-02-03T06:35:17.695Z,92.00
2023-02-03T06:37:44.857Z,92.96
2023-02-03T06:40:12.105Z,92.75
2023-02-03T06:42:38.575Z,93.41
2023-02-03T06:45:05.544Z,91.14
2023-02-03T06:47:32.018Z,92.29
2023-02-03T06:49:58.404Z,91.96
2023-02-03T06:52:24.812Z,92.82
2023-02-03T06:54:51.194Z,92.81
2023-02-03T06:57:17.682Z,92.10
2023-02-03T06:59:44.146Z,93.00
2023-02-03T07:02:11.610Z,92.10
2023-02-03T07:04:38.912Z,92.39
2023-02-03T07:07:05.781Z,92.09
2023-02-03T07:09:32.584Z,91.78
2023-02-03T07:11:59.374Z,91.48
2023-02-03T07:14:25.848Z,92.10
2023-02-03T07:16:52.451Z,91.36
2023-02-03T07:19:18.916Z,91.79
2023-02-03T07:21:45.416Z,91.83
2023-02-03T07:24:11.976Z,91.62
2023-02-03T07:26:39.198Z,91.56
2023-02-03T07:29:05.725Z,91.39
2023-02-03T07:31:32.337Z,90.21
2023-02-03T07:33:59.070Z,89.50
2023-02-03T07:36:27.433Z,89.29
2023-02-03T07:38:53.792Z,88.74
2023-02-03T07:41:20.458Z,89.54
2023-02-03T07:43:50.288Z,88.44
2023-02-03T07:46:17.697Z,86.21
2023-02-03T07:48:44.223Z,87.35
2023-02-03T07:51:10.630Z,86.87
2023-02-03T07:53:37.165Z,87.89
2023-02-03T07:56:04.463Z,88.07
2023-02-03T07:58:31.283Z,88.43
2023-02-03T08:00:58.491Z,87.41
2023-02-03T08:03:25.406Z,88.86
2023-02-03T08:05:53.403Z,89.07
2023-02-03T08:08:19.862Z,88.88
2023-02-03T08:10:46.317Z,90.14
2023-02-03T08:13:12.753Z,89.35
2023-02-03T08:15:39.210Z,89.24
2023-02-03T08:18:05.784Z,89.43
2023-02-03T08:20:32.247Z,90.02
2023-02-03T08:22:58.668Z,89.77
2023-02-03T08:25:25.079Z,89.55
2023-02-03T08:27:53.290Z,90.43
2023-02-03T08:30:19.889Z,90.28
2023-02-03T08:32:46.339Z,89.50
2023-02-03T08:35:12.822Z,89.42
2023-02-03T08:37:39.393Z,91.02
2023-02-03T08:40:06.828Z,91.08
2023-02-03T08:42:33.574Z,91.10
2023-02-03T08:45:00.012Z,92.13
2023-02-03T08:47:26.782Z,91.80
2023-02-03T08:49:53.293Z,91.23
2023-02-03T08:52:19.864Z,92.03
2023-02-03T08:54:47.348Z,91.37
2023-02-03T08:57:14.423Z,90.85
2023-02-03T08:59:43.051Z,90.36
2023-02-03T09:02:14.520Z,91.69
2023-02-03T09:04:40.943Z,90.35
2023-02-03T09:07:07.364Z,90.93
2023-02-03T09:09:36.891Z,91.10
2023-02-03T09:12:05.448Z,90.35
2023-02-03T09:14:33.247Z,91.44
2023-02-03T09:17:01.632Z,91.85
2023-02-03T09:19:28.274Z,92.42
2023-02-03T09:21:54.782Z,91.99
2023-02-03T09:24:22.277Z,91.81
2023-02-03T09:26:49.199Z,92.73
2023-02-03T09:29:16.070Z,91.58
2023-02-03T09:31:42.739Z,92.30
2023-02-03T09:34:10.016Z,91.50
2023-02-03T09:36:37.615Z,91.14
2023-02-03T09:39:04.347Z,91.55
2023-02-03T09:41:51.885Z,91.13
2023-02-03T09:44:37.479Z,90.88
2023-02-03T09:47:11.981Z,92.43
2023-02-03T09:49:47.090Z,92.49
2023-02-03T09:52:22.873Z,92.56
2023-02-03T09:55:01.485Z,92.53
2023-02-03T09:57:30.807Z,92.98
2023-02-03T09:59:58.805Z,92.21
2023-02-03T10:02:33.034Z,92.50
2023-02-03T10:05:12.394Z,93.07
2023-02-03T10:08:01.926Z,92.08
2023-02-03T10:10:41.951Z,91.97
2023-02-03T10:13:26.865Z,90.46
2023-02-03T10:16:02.251Z,90.61
2023-02-03T10:18:33.237Z,90.00
2023-02-03T10:21:06.205Z,91.59
2023-02-03T10:23:39.080Z,91.27
2023-02-03T10:26:08.549Z,91.43
2023-02-03T10:28:41.606Z,92.17
2023-02-03T10:31:16.980Z,92.43
2023-02-03T10:33:43.496Z,91.46
2023-02-03T10:36:16.228Z,92.12
2023-02-03T10:38:54.973Z,91.29
2023-02-03T10:41:22.243Z,91.77
2023-02-03T10:43:53.102Z,92.55
2023-02-03T10:46:34.098Z,92.35
2023-02-03T10:49:00.874Z,90.97
2023-02-03T10:51:31.841Z,90.88
2023-02-03T10:53:58.356Z,91.00
2023-02-03T10:56:40.126Z,90.53
2023-02-03T10:59:07.388Z,89.76
2023-02-03T11:01:42.493Z,90.61
2023-02-03T11:04:31.019Z,89.43
2023-02-03T11:07:06.890Z,89.37
2023-02-03T11:09:41.490Z,89.54
2023-02-03T11:12:19.634Z,88.47
2023-02-03T11:14:50.987Z,87.68
2023-02-03T11:17:29.516Z,88.31
2023-02-03T11:20:15.038Z,87.24
2023-02-03T11:22:42.386Z,89.46
2023-02-03T11:25:18.573Z,89.51
2023-02-03T11:27:45.192Z,90.60
2023-02-03T11:30:15.556Z,90.55
2023-02-03T11:32:43.485Z,91.76
2023-02-03T11:35:12.925Z,91.33
2023-02-03T11:37:43.288Z,92.16
2023-02-03T11:40:12.594Z,93.25
2023-02-03T11:42:43.473Z,92.44
2023-02-03T11:45:15.246Z,93.84
2023-02-03T11:47:51.587Z,93.94
2023-02-03T11:50:31.317Z,93.91
2023-02-03T11:53:08.310Z,93.86
2023-02-03T11:55:53.569Z,93.16
2023-02-03T11:58:51.453Z,93.36
2023-02-03T12:01:55.545Z,93.42
2023-02-03T12:04:42.709Z,93.13
2023-02-03T12:07:42.691Z,93.00
2023-02-03T12:10:36.751Z,92.73
2023-02-03T12:13:16.694Z,92.38
2023-02-03T12:16:04.602Z,92.48
2023-02-03T12:18:49.738Z,93.38
2023-02-03T12:21:43.078Z,93.00
2023-02-03T12:24:19.163Z,93.90
2023-02-03T12:27:12.524Z,92.51
2023-02-03T12:29:43.251Z,93.13
2023-02-03T12:32:17.571Z,92.15
2023-02-03T12:34:52.627Z,93.53
2023-02-03T12:37:23.882Z,92.16
2023-02-03T12:40:05.322Z,92.22
2023-02-03T12:42:46.410Z,92.09
2023-02-03T12:45:25.724Z,90.90
2023-02-03T12:47:57.231Z,91.62
2023-02-03T12:50:30.966Z,91.88
2023-02-03T12:53:05.940Z,90.95
2023-02-03T12:55:55.192Z,90.04
2023-02-03T12:58:25.334Z,90.60
2023-02-03T13:00:59.746Z,90.65
2023-02-03T13:03:34.418Z,92.28
2023-02-03T13:06:25.138Z,93.53
2023-02-03T13:09:01.561Z,93.22
2023-02-03T13:11:39.158Z,91.73
2023-02-03T13:14:15.386Z,92.77
2023-02-03T13:16:44.820Z,93.37
2023-02-03T13:19:17.219Z,89.65
2023-02-03T13:21:43.998Z,89.52
2023-02-03T13:24:11.148Z,89.58
2023-02-03T13:26:55.852Z,89.10
2023-02-03T13:29:48.021Z,88.36
2023-02-03T13:32:41.185Z,88.66
2023-02-03T13:35:24.784Z,88.30
2023-02-03T13:38:17.497Z,89.53
2023-02-03T13:41:14.053Z,86.52
2023-02-03T13:43:48.177Z,87.68
2023-02-03T13:46:31.003Z,86.42
2023-02-03T13:48:59.815Z,85.97
2023-02-03T13:51:34.619Z,85.73
2023-02-03T13:54:04.065Z,84.96
2023-02-03T13:56:31.107Z,84.06
2023-02-03T13:59:05.280Z,84.33
2023-02-03T14:01:33.439Z,82.33
2023-02-03T14:04:00.721Z,82.44
2023-02-03T14:06:39.387Z,81.44
2023-02-03T14:09:23.840Z,80.07
2023-02-03T14:11:51.983Z,83.19
2023-02-03T14:14:20.709Z,79.45
2023-02-03T14:16:48.863Z,77.32
2023-02-03T14:19:21.443Z,80.21
2023-02-03T14:21:53.963Z,78.65
2023-02-03T14:24:21.635Z,78.04
2023-02-03T14:26:51.997Z,79.41
2023-02-03T14:29:30.300Z,81.76
2023-02-03T14:31:59.126Z,77.91
2023-02-03T14:34:30.392Z,76.72
2023-02-03T14:36:57.213Z,77.38
2023-02-03T14:39:55.348Z,78.99
2023-02-03T14:42:29.695Z,77.91
2023-02-03T14:45:17.015Z,76.07
2023-02-03T14:47:49.737Z,76.67
2023-02-03T14:50:22.268Z,77.65
2023-02-03T14:53:05.385Z,77.77
2023-02-03T14:55:57.061Z,76.27
2023-02-03T14:58:32.232Z,76.42
2023-02-03T15:01:00.607Z,76.69
2023-02-03T15:03:30.304Z,75.63
2023-02-03T15:05:58.280Z,75.85
2023-02-03T15:08:42.351Z,77.03
2023-02-03T15:11:25.713Z,76.18
2023-02-03T15:13:54.305Z,75.35
2023-02-03T15:16:25.153Z,75.16
2023-02-03T15:18:57.923Z,74.36
2023-02-03T15:21:24.891Z,76.98
2023-02-03T15:23:52.120Z,76.75
2023-02-03T15:26:24.359Z,78.76
2023-02-03T15:28:55.340Z,78.74
2023-02-03T15:31:41.674Z,78.62
2023-02-03T15:34:28.943Z,78.31
2023-02-03T15:36:59.844Z,78.82
2023-02-03T15:39:43.249Z,78.73
2023-02-03T15:42:17.760Z,78.65
2023-02-03T15:44:53.019Z,75.91
2023-02-03T15:47:39.834Z,75.80
2023-02-03T15:50:25.398Z,76.70
2023-02-03T15:52:54.219Z,76.53
2023-02-03T15:55:45.518Z,75.62
2023-02-03T15:58:22.663Z,74.16
2023-02-03T16:00:53.038Z,73.91
2023-02-03T16:03:30.082Z,73.82
2023-02-03T16:05:56.494Z,72.87
2023-02-03T16:08:31.004Z,72.60
2023-02-03T16:10:57.518Z,73.62
2023-02-03T16:13:26.177Z,72.43
2023-02-03T16:16:02.356Z,72.37
2023-02-03T16:18:29.159Z,72.71
2023-02-03T16:20:55.944Z,71.50
2023-02-03T16:23:24.680Z,72.57
2023-02-03T16:26:05.956Z,71.62
2023-02-03T16:28:51.304Z,71.34
2023-02-03T16:31:38.272Z,72.88
2023-02-03T16:34:36.217Z,70.35
2023-02-03T16:37:31.143Z,71.08
2023-02-03T16:40:16.648Z,69.83
2023-02-03T16:43:02.393Z,68.82
2023-02-03T16:45:47.751Z,68.78
2023-02-03T16:48:33.125Z,68.73
2023-02-03T16:51:04.980Z,69.11
2023-02-03T16:53:32.515Z,69.34
2023-02-03T16:56:02.433Z,67.58
2023-02-03T16:58:28.863Z,66.84
2023-02-03T17:00:55.918Z,67.26
2023-02-03T17:03:25.519Z,67.52
2023-02-03T17:05:52.352Z,66.45
2023-02-03T17:08:21.438Z,67.45
2023-02-03T17:10:48.600Z,67.06
2023-02-03T17:13:18.515Z,67.08
2023-02-03T17:15:47.307Z,69.10
2023-02-03T17:18:17.774Z,69.99
2023-02-03T17:20:44.855Z,69.96
2023-02-03T17:23:12.393Z,69.73
2023-02-03T17:25:40.117Z,68.49
2023-02-03T17:28:08.313Z,68.67
2023-02-03T17:30:35.493Z,69.08
2023-02-03T17:33:03.726Z,68.05
2023-02-03T17:35:30.375Z,68.10
2023-02-03T17:37:57.245Z,68.45
2023-02-03T17:54:06.560Z,68.40
2023-02-03T17:56:35.414Z,66.95
2023-02-03T17:59:03.512Z,66.82
2023-02-03T18:01:30.661Z,67.03
2023-02-03T18:04:08.767Z,65.73
2023-02-03T18:06:35.611Z,66.02
2023-02-03T18:09:03.738Z,65.79
2023-02-03T18:11:31.226Z,64.85
2023-02-03T18:13:57.811Z,64.21
2023-02-03T18:16:27.923Z,64.39
2023-02-03T18:18:54.971Z,63.63
2023-02-03T18:21:23.496Z,63.52
2023-02-03T18:23:51.585Z,63.62
2023-02-03T18:26:19.779Z,62.75
2023-02-03T18:28:46.795Z,62.89
2023-02-03T18:31:15.414Z,62.60
2023-02-03T18:33:43.254Z,62.39
2023-02-03T18:36:15.803Z,63.36
2023-02-03T18:38:44.316Z,61.77
2023-02-03T18:41:17.786Z,61.52
2023-02-03T18:43:51.718Z,62.45
2023-02-03T18:46:29.639Z,62.09
2023-02-03T18:48:56.474Z,62.47
2023-02-03T18:51:24.237Z,62.93
2023-02-03T18:53:51.135Z,62.59
2023-02-03T18:56:26.253Z,62.00
2023-02-03T18:58:52.847Z,63.23
2023-02-03T19:01:27.721Z,62.74
2023-02-03T19:03:55.428Z,62.45
2023-02-03T19:06:22.196Z,64.21
2023-02-03T19:08:48.665Z,67.13
2023-02-03T19:11:15.151Z,65.46
2023-02-03T19:13:42.009Z,65.57
2023-02-03T19:16:09.765Z,65.25
2023-02-03T19:18:36.258Z,64.91
2023-02-03T19:21:03.045Z,65.02
2023-02-03T19:23:29.492Z,64.08
2023-02-03T19:25:56.012Z,63.87
2023-02-03T19:28:30.396Z,64.26
2023-02-03T19:31:11.687Z,65.56
2023-02-03T19:33:38.250Z,63.99
2023-02-03T19:36:06.363Z,65.34
2023-02-03T19:38:33.911Z,64.28
2023-02-03T19:41:03.329Z,64.25
2023-02-03T19:43:30.420Z,64.58
2023-02-03T19:45:56.913Z,67.23
2023-02-03T19:48:23.425Z,67.10
2023-02-03T19:50:49.831Z,67.34
2023-02-03T19:53:17.287Z,67.38
2023-02-03T19:55:43.984Z,68.58
2023-02-03T19:58:11.061Z,68.68
2023-02-03T20:00:37.517Z,69.42
2023-02-03T20:03:03.973Z,69.15
2023-02-03T20:05:30.554Z,69.25
2023-02-03T20:07:57.103Z,69.10
2023-02-03T20:10:26.297Z,69.19
2023-02-03T20:12:53.824Z,70.82
2023-02-03T20:15:20.643Z,70.15
2023-02-03T20:17:47.380Z,70.41
2023-02-03T20:20:13.906Z,70.90
2023-02-03T20:22:40.298Z,71.27
2023-02-03T20:25:07.045Z,71.98
2023-02-03T20:27:33.666Z,72.62
2023-02-03T20:30:00.160Z,72.11
2023-02-03T20:32:26.647Z,72.48
2023-02-03T20:34:53.130Z,72.76
2023-02-03T20:37:19.589Z,73.15
2023-02-03T20:39:46.033Z,75.31
2023-02-03T20:42:17.245Z,75.50
2023-02-03T20:44:44.204Z,76.92
2023-02-03T20:47:12.527Z,77.76
2023-02-03T20:49:39.114Z,78.52
2023-02-03T20:52:16.094Z,78.89
2023-02-03T20:54:42.826Z,78.09
2023-02-03T20:57:17.902Z,77.79
2023-02-03T20:59:45.238Z,78.74
2023-02-03T21:02:19.062Z,76.80
2023-02-03T21:04:57.820Z,76.36
2023-02-03T21:07:27.385Z,77.25
2023-02-03T21:09:54.511Z,78.53
2023-02-03T21:12:21.029Z,79.42
2023-02-03T21:14:53.115Z,80.66
2023-02-03T21:17:22.308Z,81.56
2023-02-03T21:19:49.312Z,81.11
2023-02-03T21:22:26.703Z,82.56
2023-02-03T21:25:03.350Z,83.53
2023-02-03T21:27:32.422Z,84.32
2023-02-03T21:30:01.094Z,84.35
2023-02-03T21:32:47.924Z,84.12
2023-02-03T21:35:26.507Z,85.28
2023-02-03T21:37:57.162Z,85.69
2023-02-03T21:40:34.500Z,87.87
2023-02-03T21:43:04.908Z,87.48
2023-02-03T21:45:43.670Z,86.56
2023-02-03T21:48:30.221Z,88.35
2023-02-03T21:51:00.698Z,88.18
2023-02-03T21:53:29.401Z,88.45
2023-02-03T21:55:55.914Z,88.82
2023-02-03T21:58:32.153Z,88.57
2023-02-03T22:01:00.743Z,89.07
2023-02-03T22:03:37.037Z,89.19
2023-02-03T22:06:09.257Z,90.27
2023-02-03T22:08:46.701Z,90.63
2023-02-03T22:11:14.066Z,90.17
2023-02-03T22:13:40.715Z,91.10
2023-02-03T22:16:07.485Z,90.97
2023-02-03T22:18:34.633Z,91.73
2023-02-03T22:21:02.043Z,91.08
2023-02-03T22:23:28.878Z,91.48
2023-02-03T22:25:55.284Z,92.73
2023-02-03T22:28:21.722Z,93.10
2023-02-03T22:30:48.269Z,93.11
2023-02-03T22:33:14.802Z,92.49
2023-02-03T22:35:41.190Z,92.79
2023-02-03T22:38:07.627Z,93.04
2023-02-03T22:40:34.553Z,92.29
2023-02-03T22:43:00.936Z,92.98
2023-02-03T22:45:27.318Z,93.50
2023-02-03T22:47:53.780Z,93.04
2023-02-03T22:50:27.134Z,93.63
2023-02-03T22:52:57.642Z,93.12
2023-02-03T22:55:24.029Z,93.43
2023-02-03T22:57:50.592Z,93.81
2023-02-03T23:00:20.946Z,94.42
2023-02-03T23:02:47.967Z,94.50
2023-02-03T23:05:14.906Z,94.11
2023-02-03T23:07:41.328Z,93.81
2023-02-03T23:10:10.608Z,94.32
2023-02-03T23:12:37.333Z,94.41
2023-02-03T23:15:04.570Z,94.80
2023-02-03T23:17:31.168Z,94.72
2023-02-03T23:19:57.627Z,94.87
2023-02-03T23:22:24.031Z,94.81
2023-02-03T23:24:50.442Z,94.81
2023-02-03T23:27:16.853Z,94.81
2023-02-03T23:29:43.476Z,94.52
2023-02-03T23:32:10.964Z,95.01
2023-02-03T23:34:55.890Z,95.05
2023-02-03T23:37:22.610Z,95.19
2023-02-03T23:39:50.318Z,95.37
2023-02-03T23:42:16.745Z,94.94
2023-02-03T23:44:43.171Z,95.52
2023-02-03T23:47:09.935Z,95.12
2023-02-03T23:49:36.430Z,95.45
2023-02-03T23:52:02.830Z,94.48
2023-02-03T23:54:29.346Z,92.35
2023-02-03T23:56:55.800Z,92.42
2023-02-03T23:59:22.256Z,91.31
